• Join FlightAware (Why Join?)
  • Login
  • US Flag 
08:58AM EST


 

Airport Tracker/Info


-or-


 

Live Flight TrackerFlight Track Log ✈ SKW5476 ✈ 23-Apr-2013 ✈ KSFO - KRDM

Flight Track Log - Related Links

Times and Time Zones

All times are in EDT time to prevent confusion due to time zone crossing. See the SKW5476 flight status page for this flight to view local times or setup timezone preferences in your user account.

Time Position Orientation Groundspeed Altitude Reporting Facility
EDT Latitude Longitude Course Direction KTS MPH feet Rate Location/Type
03:09PM 37.6333 -122.3667 North 137 158 1,100  Level Northern Cal TRACON
03:10PM 37.6833 -122.3667 360° North 179 206 2,400 1,140 Climbing Northern Cal TRACON
03:10PM 37.6961 -122.3597 23° Northeast 169 194 2,700 1,260 Climbing Oakland Center
03:11PM 37.7436 -122.3328 24° Northeast 185 213 4,200 1,500 Climbing Oakland Center
03:12PM 37.8351 -122.3667 North  Level FlightAware Approximate
03:12PM 37.7950 -122.3219 North 187 215 5,800  Level Oakland Center
03:13PM 37.9076 -122.3748 345° North  Level FlightAware Approximate
03:13PM 37.8492 -122.3264 356° North 193 222 7,300  Level Oakland Center
03:14PM 37.9756 -122.3667 North  Level FlightAware Approximate
03:14PM 37.9042 -122.3256 North 198 228 8,800  Level Oakland Center
03:15PM 37.9608 -122.3139 North 205 236 9,900 1,260 Climbing Oakland Center
03:16PM 38.0361 -122.2975 10° North 225 259 11,500 1,560 Climbing Oakland Center
03:17PM 38.0953 -122.2903 North 216 249 13,100 1,380 Climbing Oakland Center
03:18PM 38.1544 -122.2789 North 216 249 14,400 1,260 Climbing Oakland Center
03:19PM 38.2150 -122.2697 North 218 251 15,700 1,200 Climbing Oakland Center
03:20PM 38.2742 -122.2606 North 217 250 16,900 1,020 Climbing Oakland Center
03:21PM 38.3367 -122.2506 North 223 257 17,800 840 Climbing Oakland Center
03:23PM 38.4000 -122.2386 North 229 264 18,700 900 Climbing Oakland Center
03:24PM 38.4653 -122.2269 North 236 272 19,700 1,020 Climbing Oakland Center
03:25PM 38.5417 -122.2153 North 232 267 20,900 1,020 Climbing Oakland Center
03:26PM 38.6044 -122.2044 North 229 264 21,800 780 Climbing Oakland Center
03:27PM 38.6678 -122.1947 North 229 264 22,600 780 Climbing Oakland Center
03:28PM 38.7339 -122.1828 North 230 265 23,400 660 Climbing Oakland Center
03:29PM 38.7978 -122.1706 North 231 266 24,000 240 Climbing Oakland Center
03:30PM 38.8656 -122.1592 North 241 277 24,000  Level Oakland Center
03:31PM 38.9383 -122.1467 North 256 295 24,000  Level Oakland Center
03:32PM 39.0147 -122.1308 North 270 311 24,100  Climbing Oakland Center
03:33PM 39.0864 -122.1211 North 264 304 24,000 -60 Descending Oakland Center
03:34PM 39.1564 -122.1106 North 255 293 24,000  Level Oakland Center
03:35PM 39.2269 -122.0978 North 253 291 24,000  Level Oakland Center
03:36PM 39.2964 -122.0842 North 252 290 24,000  Level Oakland Center
03:37PM 39.3653 -122.0719 North 250 288 24,000  Level Oakland Center
03:38PM 39.4344 -122.0603 North 249 287 24,000  Level Oakland Center
03:39PM 39.5164 -122.0489 North 246 283 24,000  Level Oakland Center
03:40PM 39.5836 -122.0381 North 243 280 24,000  Level Oakland Center
03:41PM 39.6553 -122.0217 10° North 254 292 24,000  Level Oakland Center
03:42PM 39.7244 -122.0114 North 248 285 24,000  Level Oakland Center
03:43PM 39.7953 -121.9978 North 254 292 24,000  Level Oakland Center
03:44PM 39.8644 -121.9858 North 250 288 24,000  Level Oakland Center
03:45PM 39.9347 -121.9719 North 252 290 24,000  Level Oakland Center
03:46PM 40.0047 -121.9619 North 252 290 24,000  Level Oakland Center
03:47PM 40.0750 -121.9469 North 254 292 24,000  Level Oakland Center
03:48PM 40.1450 -121.9333 North 253 291 24,000  Level Oakland Center
03:49PM 40.2139 -121.9206 North 250 288 24,000  Level Oakland Center
03:50PM 40.2975 -121.9083 North 250 288 24,000  Level Oakland Center
03:51PM 40.3686 -121.8958 North 253 291 24,000  Level Oakland Center
03:52PM 40.4386 -121.8831 North 252 290 24,000  Level Oakland Center
03:53PM 40.5092 -121.8719 North 252 290 24,000  Level Oakland Center
03:54PM 40.5794 -121.8575 North 258 297 24,000  Level Oakland Center
03:55PM 40.6494 -121.8431 North 256 295 24,000  Level Oakland Center
03:56PM 40.7194 -121.8308 North 255 293 24,000  Level Oakland Center
03:57PM 40.7906 -121.8186 North 257 296 24,000  Level Oakland Center
03:58PM 40.8606 -121.8058 North 256 295 24,000  Level Oakland Center
03:59PM 40.9311 -121.7928 North 258 297 24,000  Level Oakland Center
04:00PM 41.0150 -121.7783 North 256 295 24,000  Level Oakland Center
04:01PM 41.0858 -121.7658 North 258 297 24,000  Level Oakland Center
04:02PM 41.1558 -121.7536 North 256 295 24,000  Level Oakland Center
04:03PM 41.1703 -121.7514 North 255 293 24,000  Level Seattle Center
04:04PM 41.2406 -121.7392 North 255 293 24,000  Level Seattle Center
04:05PM 41.3111 -121.7264 North 256 295 24,000  Level Seattle Center
04:06PM 41.3806 -121.7139 North 254 292 24,000  Level Seattle Center
04:07PM 41.4653 -121.6972 North 255 293 24,000  Level Seattle Center
04:08PM 41.5353 -121.6844 North 254 292 24,000  Level Seattle Center
04:09PM 41.6047 -121.6706 North 254 292 24,000  Level Seattle Center
04:10PM 41.6742 -121.6567 North 254 292 24,000  Level Seattle Center
04:11PM 41.7439 -121.6439 North 255 293 24,000  Level Seattle Center
04:12PM 41.8128 -121.6306 North 252 290 24,000  Level Seattle Center
04:13PM 41.8819 -121.6183 North 252 290 24,000  Level Seattle Center
04:14PM 41.9503 -121.6050 North 251 289 24,000  Level Seattle Center
04:15PM 42.0172 -121.5919 North 247 284 24,000  Level Seattle Center
04:16PM 42.0856 -121.5778 North 250 288 24,000  Level Seattle Center
04:17PM 42.1672 -121.5633 North 249 287 24,000  Level Seattle Center
04:18PM 42.2364 -121.5489 North 251 289 24,000  Level Seattle Center
04:19PM 42.3053 -121.5369 North 251 289 24,000  Level Seattle Center
04:20PM 42.3736 -121.5242 North 250 288 24,000  Level Seattle Center
04:21PM 42.4419 -121.5094 North 249 287 24,000  Level Seattle Center
04:22PM 42.5119 -121.4969 North 253 291 24,000  Level Seattle Center
04:23PM 42.5803 -121.4831 North 250 288 24,000  Level Seattle Center
04:24PM 42.6506 -121.4700 North 252 290 24,000 -360 Level Seattle Center
04:26PM 42.7917 -121.4431 North 260 299 23,000 -600 Descending Seattle Center
04:27PM 42.8711 -121.4269 North 282 325 22,200 -720 Descending Seattle Center
04:28PM 42.9514 -121.4103 North 290 334 21,600 -660 Descending Seattle Center
04:29PM 43.0483 -121.3908 North 293 337 20,900 -660 Descending Seattle Center
04:30PM 43.1289 -121.3756 North 292 336 20,300 -600 Descending Seattle Center
04:31PM 43.2092 -121.3589 North 292 336 19,700 -600 Descending Seattle Center
04:32PM 43.2906 -121.3453 North 292 336 19,100 -1,020 Descending Seattle Center
04:33PM 43.3725 -121.3281 North 298 343 17,700 -1,380 Descending Seattle Center
04:34PM 43.4533 -121.3128 North 294 338 16,300 -1,380 Descending Seattle Center
04:35PM 43.5281 -121.2997 North 274 315 14,900 -1,440 Descending Seattle Center
04:36PM 43.5953 -121.2864 North 257 296 13,400 -1,440 Descending Seattle Center
04:37PM 43.6667 -121.2706 North 258 297 12,000 -840 Descending Seattle Center
04:38PM 43.7336 -121.2581 North 247 284 11,800 -420 Descending Seattle Center
04:39PM 43.8119 -121.2436 North 237 273 11,200 -600 Descending Seattle Center
04:40PM 43.8772 -121.2294 North 237 273 10,700 -480 Descending Seattle Center
04:41PM 43.9444 -121.2156 North 240 276 10,300 -600 Descending Seattle Center
04:42PM 44.0106 -121.1806 21° North 256 295 9,600 -1,320 Descending Seattle Center
04:43PM 44.0733 -121.1383 26° Northeast 254 292 7,700 -1,920 Descending Seattle Center
04:44PM 44.1358 -121.1044 21° North 249 287 5,800 -1,680 Descending Seattle Center
04:45PM 44.1928 -121.0747 21° North 235 270 4,400 -1,080 Descending Seattle Center
04:46PM 44.2317 -121.1000 335° Northwest 192 221 3,700 -720 Descending Seattle Center